Au Train, Michigan
Current Conditions -  °F | °C
As of 12:37 AM on Thursday 27 Nov 2014 (Local Time) from KSAW Reporting Station
Moderate Snow Moderate Snow  
Wind Chill:   Ceiling: 300
Heat Index: 21°   Visibility: 1mi
Dew Point: 18°   Wind: 16mph
Humidity: 88%   Direction: 350°N
Pressure: 30.15"   Gusts: 22mph
Location:  46.43°N, 86.84°W
Report Text: KSAW 270537Z AUTO 35014G19KT 1SM SN BKN003 OVC013 M06/M08 A3015 RMK AO2 VIS 1/4V2 T10621079
Loading
Personal Weather Stations






























Interactive Weather Map New forecast layout! Learn more

10-Day Weather Forecast

Advertisements
Track Severe Weather on mobile